Terminal Aerodrome Forecast
Issued by NWS Upton, NY

Home | Current Version | Previous Version | Text Only | Print | Product List | Glossary On
Versions: 1 2 3 4 5 6 7 8 9 10 11 12 13 14 15 16 17 18 19 20 21 22 23 24 25 26 27 28 29 30 31
000
FTUS41 KOKX 230700 AAA
TAFBDR
TAF AMD
KBDR 230733Z 2308/2406 01022G33KT P6SM OVC020
      TEMPO 2308/2311 4SM -RA BR BKN012
     FM231100 01021G29KT 6SM BR VCSH BKN015
     FM231400 35018G27KT P6SM VCSH BKN015
     FM231900 34017G26KT P6SM BKN025 OVC035
     FM240000 33015G24KT P6SM BKN040 BKN080
     FM240400 33013G22KT P6SM BKN050 BKN080=

USA.gov is the U.S. government's official web portal to all federal, state and local government web resources and services.